Time;durP1;ratioP1;P1;durP2;ratioP2;P2;SDS_P1;SDS_P2;PMS_P1;PMS_P2;Temp;Humidity;BMP_temperature;BMP_pressure;BME280_temperature;BME280_humidity;BME280_pressure;Samples;Min_cycle;Max_cycle;Signal;HPM_P1;HPM_P2
2021/04/01 00:01:46;;;;;;;20.17;11.25;;;17.30;45.10;;;;;;5021372;28;20396;-94
2021/04/01 00:04:12;;;;;;;20.00;11.52;;;17.30;45.20;;;;;;5036272;28;20021;-94
2021/04/01 00:06:38;;;;;;;18.83;11.02;;;17.30;45.20;;;;;;5048128;28;20025;-96
2021/04/01 00:09:04;;;;;;;19.20;11.05;;;17.30;45.30;;;;;;5041434;28;20028;-96
2021/04/01 00:11:30;;;;;;;18.58;10.77;;;17.30;45.20;;;;;;5035840;28;20052;-96
2021/04/01 00:13:55;;;;;;;18.73;10.52;;;17.30;45.20;;;;;;5024071;28;20026;-96
2021/04/01 00:16:22;;;;;;;18.73;10.75;;;17.40;45.30;;;;;;5038650;28;20028;-96
2021/04/01 00:18:48;;;;;;;20.60;11.63;;;17.30;45.20;;;;;;5045521;28;20051;-95
2021/04/01 00:21:14;;;;;;;19.80;10.77;;;17.40;45.30;;;;;;5051541;28;20032;-95
2021/04/01 00:23:39;;;;;;;17.95;10.30;;;17.30;45.30;;;;;;5043785;28;20083;-93
2021/04/01 00:26:05;;;;;;;17.98;10.13;;;17.30;45.50;;;;;;5043432;28;20119;-94
2021/04/01 00:28:31;;;;;;;19.40;10.98;;;17.30;45.50;;;;;;5043407;28;20444;-94
2021/04/01 00:30:56;;;;;;;19.23;11.25;;;17.30;45.40;;;;;;5036931;28;20112;-95
2021/04/01 00:33:22;;;;;;;19.83;11.48;;;17.30;45.50;;;;;;5034097;28;20373;-93
2021/04/01 00:35:47;;;;;;;18.75;10.60;;;17.30;45.50;;;;;;5022590;28;20021;-94
2021/04/01 00:38:13;;;;;;;18.00;10.68;;;17.20;45.50;;;;;;5015347;28;20057;-95
2021/04/01 00:40:39;;;;;;;18.60;10.77;;;17.20;45.70;;;;;;5034760;28;20037;-94
2021/04/01 00:43:04;;;;;;;19.67;11.30;;;17.30;45.70;;;;;;5029304;28;20037;-96
2021/04/01 00:45:30;;;;;;;18.67;11.43;;;17.30;45.60;;;;;;5020315;28;20024;-96
2021/04/01 00:47:56;;;;;;;18.25;10.45;;;17.30;45.60;;;;;;5039349;28;20026;-95
2021/04/01 00:50:28;;;;;;;18.95;10.73;;;17.30;45.70;;;;;;5044522;28;20026;-95
2021/04/01 00:52:53;;;;;;;;;;;17.30;45.70;;;;;;5043476;28;20105;-94
2021/04/01 00:55:19;;;;;;;17.95;10.32;;;17.30;45.60;;;;;;5045292;28;20006;-94
2021/04/01 00:57:49;;;;;;;17.20;10.40;;;17.20;45.80;;;;;;5035748;28;20029;-94
2021/04/01 01:00:20;;;;;;;19.83;10.63;;;17.10;46.00;;;;;;5044477;28;20065;-95
2021/04/01 01:02:45;;;;;;;16.58;9.55;;;17.10;46.10;;;;;;5034205;28;20022;-95
2021/04/01 01:05:13;;;;;;;17.55;10.25;;;17.10;46.20;;;;;;5019748;28;20033;-94
2021/04/01 01:07:39;;;;;;;18.38;10.73;;;17.00;46.30;;;;;;5035600;28;20037;-94
2021/04/01 01:10:17;;;;;;;20.83;11.77;;;17.10;46.30;;;;;;5025667;28;20052;-95
2021/04/01 01:12:43;;;;;;;20.08;12.02;;;17.10;46.50;;;;;;5015838;28;20033;-95
2021/04/01 01:15:11;;;;;;;18.05;10.00;;;17.10;46.50;;;;;;5024226;28;20041;-94
2021/04/01 01:17:37;;;;;;;18.35;10.18;;;17.00;46.50;;;;;;5032031;28;20029;-94
2021/04/01 01:20:05;;;;;;;19.20;11.07;;;17.00;46.50;;;;;;5032037;28;20439;-94
2021/04/01 01:22:31;;;;;;;17.67;10.07;;;17.00;46.60;;;;;;5033699;28;20120;-94
2021/04/01 01:24:57;;;;;;;19.17;11.00;;;17.10;46.70;;;;;;5033345;28;20779;-95
2021/04/01 01:27:23;;;;;;;19.88;10.43;;;17.10;46.70;;;;;;5034716;28;20033;-96
2021/04/01 01:29:49;;;;;;;18.88;11.13;;;17.00;46.60;;;;;;5035762;28;20047;-95
2021/04/01 01:32:19;;;;;;;19.83;11.32;;;17.00;46.70;;;;;;5035847;28;20030;-95
2021/04/01 01:34:48;;;;;;;17.20;10.35;;;17.00;47.00;;;;;;5036173;28;20025;-96
2021/04/01 01:37:16;;;;;;;20.52;11.60;;;16.90;47.20;;;;;;5034332;28;20037;-95
2021/04/01 01:39:42;;;;;;;17.77;9.73;;;16.90;47.30;;;;;;5030842;28;20484;-95
2021/04/01 01:42:08;;;;;;;21.50;12.75;;;16.90;47.30;;;;;;5029347;28;20124;-94
2021/04/01 01:44:33;;;;;;;20.83;11.88;;;16.90;47.30;;;;;;5035722;28;20057;-95
2021/04/01 01:47:01;;;;;;;21.70;11.23;;;16.90;47.20;;;;;;5045211;28;20025;-95
2021/04/01 01:49:26;;;;;;;17.92;10.82;;;16.90;47.20;;;;;;5048264;28;20036;-96
2021/04/01 01:51:52;;;;;;;18.80;10.98;;;16.90;47.30;;;;;;5025888;28;20018;-96
2021/04/01 01:54:18;;;;;;;18.55;10.57;;;16.90;47.60;;;;;;5044096;28;20049;-96
2021/04/01 01:56:43;;;;;;;19.77;10.93;;;16.90;47.70;;;;;;5042750;28;20461;-96
2021/04/01 01:59:09;;;;;;;21.67;12.00;;;16.90;47.60;;;;;;5027368;28;20030;-96
2021/04/01 02:01:35;;;;;;;25.52;13.80;;;16.90;47.60;;;;;;5017581;28;20026;-96
2021/04/01 02:04:10;;;;;;;23.02;12.45;;;16.90;47.50;;;;;;5045583;28;20095;-96
2021/04/01 02:06:35;;;;;;;17.33;9.90;;;16.80;47.50;;;;;;5030175;28;20022;-96
2021/04/01 02:09:02;;;;;;;23.10;12.02;;;16.80;47.50;;;;;;5026467;28;20536;-96
2021/04/01 02:14:03;;;;;;;20.40;10.50;;;16.80;47.10;;;;;;5078858;22;20058;-96
2021/04/01 02:16:41;;;;;;;19.50;10.93;;;16.90;47.00;;;;;;5025516;28;20064;-96
2021/04/01 02:19:09;;;;;;;23.60;12.88;;;16.80;47.00;;;;;;5012215;28;20042;-96
2021/04/01 02:21:39;;;;;;;18.00;10.02;;;16.80;46.80;;;;;;5027262;28;20021;-96
2021/04/01 02:24:05;;;;;;;21.92;11.73;;;16.90;46.90;;;;;;5030134;28;20034;-96
2021/04/01 02:26:31;;;;;;;23.25;12.52;;;16.80;47.00;;;;;;5025819;28;20049;-93
2021/04/01 02:28:56;;;;;;;20.65;11.30;;;16.80;47.10;;;;;;5011305;28;20068;-94
2021/04/01 02:31:22;;;;;;;21.42;12.30;;;16.70;47.10;;;;;;5002418;28;20092;-93
2021/04/01 02:33:48;;;;;;;20.95;11.82;;;16.70;47.30;;;;;;5013542;28;20025;-93
2021/04/01 02:36:14;;;;;;;23.50;11.95;;;16.70;47.50;;;;;;5009512;28;20025;-94
2021/04/01 02:38:41;;;;;;;21.27;11.80;;;16.60;47.60;;;;;;5015413;28;20037;-93
2021/04/01 02:41:07;;;;;;;18.15;10.75;;;16.60;47.70;;;;;;5014890;28;20508;-93
2021/04/01 02:43:33;;;;;;;21.80;11.75;;;16.60;47.80;;;;;;5016296;28;20029;-95
2021/04/01 02:45:59;;;;;;;23.13;13.02;;;16.60;47.80;;;;;;5027395;28;20029;-93
2021/04/01 02:48:25;;;;;;;25.25;13.43;;;16.50;47.70;;;;;;5004316;28;20022;-94
2021/04/01 02:50:52;;;;;;;24.50;13.63;;;16.40;47.60;;;;;;5013291;28;20045;-96
2021/04/01 02:53:18;;;;;;;23.80;13.27;;;16.40;47.60;;;;;;5024185;28;20026;-95
2021/04/01 02:55:44;;;;;;;24.23;12.48;;;16.30;47.60;;;;;;5025246;28;20070;-95
2021/04/01 02:58:09;;;;;;;21.90;11.93;;;16.20;47.60;;;;;;5025232;28;20049;-94
2021/04/01 03:00:36;;;;;;;21.73;12.93;;;16.20;47.60;;;;;;4998080;28;20038;-95
2021/04/01 03:05:37;;;;;;;20.90;11.82;;;16.10;47.70;;;;;;5013183;28;20037;-93
2021/04/01 03:08:03;;;;;;;21.45;12.13;;;16.10;47.60;;;;;;5011797;28;20014;-95
2021/04/01 03:10:29;;;;;;;19.48;11.15;;;16.00;47.50;;;;;;5012461;28;20084;-95
2021/04/01 03:12:54;;;;;;;20.73;12.02;;;16.00;47.60;;;;;;5012079;28;20113;-95
2021/04/01 03:15:20;;;;;;;20.55;10.82;;;16.00;47.70;;;;;;5012103;28;20014;-94
2021/04/01 03:17:46;;;;;;;30.67;16.02;;;15.90;47.70;;;;;;5002658;28;20022;-94
2021/04/01 03:20:16;;;;;;;25.17;14.05;;;15.80;48.00;;;;;;4993678;28;20034;-92
2021/04/01 03:22:42;;;;;;;25.23;13.60;;;15.70;48.30;;;;;;4994305;28;20022;-93
2021/04/01 03:25:10;;;;;;;23.30;12.52;;;15.50;48.40;;;;;;4993640;28;20030;-93
2021/04/01 03:27:36;;;;;;;26.42;14.55;;;15.40;48.60;;;;;;4996700;28;20036;-93
2021/04/01 03:30:08;;;;;;;25.63;13.93;;;15.30;48.90;;;;;;5012324;28;20473;-94
2021/04/01 03:32:39;;;;;;;21.80;11.40;;;15.20;49.10;;;;;;5012210;28;20081;-92
2021/04/01 03:35:10;;;;;;;19.25;11.85;;;15.20;49.30;;;;;;5011252;28;20072;-92
2021/04/01 03:37:36;;;;;;;24.23;13.60;;;15.10;49.30;;;;;;5009353;28;20125;-93
2021/04/01 03:40:07;;;;;;;21.48;12.35;;;15.10;49.30;;;;;;5015718;28;20428;-93
2021/04/01 03:42:33;;;;;;;22.88;13.27;;;15.00;49.40;;;;;;5015615;28;20022;-93
2021/04/01 03:44:58;;;;;;;20.60;12.40;;;15.10;49.60;;;;;;5016327;28;20063;-92
2021/04/01 03:47:24;;;;;;;22.20;12.88;;;15.00;49.80;;;;;;5017084;28;20415;-96
2021/04/01 03:49:49;;;;;;;24.38;13.63;;;15.00;50.00;;;;;;5015907;28;20029;-96
2021/04/01 03:52:15;;;;;;;23.60;13.52;;;14.90;50.10;;;;;;5017676;28;20029;-96
2021/04/01 03:54:44;;;;;;;22.67;12.68;;;14.90;50.20;;;;;;5014387;28;20033;-96
2021/04/01 03:57:09;;;;;;;22.52;12.45;;;14.80;50.30;;;;;;5022930;28;20032;-95
2021/04/01 03:59:43;;;;;;;21.95;12.77;;;14.70;50.40;;;;;;5013821;28;20121;-96
2021/04/01 04:05:00;;;;;;;23.58;13.48;;;14.70;50.70;;;;;;5015245;28;20053;-95
2021/04/01 04:17:29;;;;;;;18.27;10.55;;;14.50;51.00;;;;;;5013319;28;20060;-94
2021/04/01 04:19:54;;;;;;;21.55;12.27;;;14.50;51.10;;;;;;5015209;28;20388;-95
2021/04/01 04:22:20;;;;;;;18.88;11.02;;;14.40;51.40;;;;;;5016495;28;20102;-96
2021/04/01 04:24:45;;;;;;;19.85;11.50;;;14.40;51.40;;;;;;5011586;28;20481;-95
2021/04/01 04:27:43;;;;;;;20.42;12.18;;;14.40;51.50;;;;;;5013395;28;20049;-95
2021/04/01 04:30:09;;;;;;;17.95;10.18;;;14.30;51.60;;;;;;4998901;28;20034;-96
2021/04/01 04:33:04;;;;;;;19.25;11.13;;;14.30;51.60;;;;;;5007785;28;20076;-96
2021/04/01 04:35:31;;;;;;;22.00;11.98;;;14.30;51.70;;;;;;5013590;28;20042;-96
2021/04/01 04:37:56;;;;;;;26.13;13.65;;;14.30;51.70;;;;;;5013749;28;20033;-96
2021/04/01 04:40:22;;;;;;;27.30;14.18;;;14.30;51.90;;;;;;5015457;28;20026;-95
2021/04/01 04:42:48;;;;;;;22.83;12.52;;;14.30;51.90;;;;;;5024287;28;20024;-95
2021/04/01 04:45:13;;;;;;;25.63;13.48;;;14.30;51.80;;;;;;5006797;28;20501;-96
2021/04/01 04:47:39;;;;;;;28.52;14.77;;;14.40;51.80;;;;;;5020853;28;20014;-96
2021/04/01 04:50:06;;;;;;;24.95;14.02;;;14.40;51.80;;;;;;5021894;28;20029;-96
2021/04/01 04:52:34;;;;;;;22.25;11.85;;;14.40;51.90;;;;;;5027136;28;20022;-96
2021/04/01 04:55:01;;;;;;;25.58;13.82;;;14.30;51.80;;;;;;5022041;28;20022;-96
2021/04/01 04:57:44;;;;;;;27.02;14.35;;;14.30;52.00;;;;;;5022578;28;20112;-96
2021/04/01 05:00:37;;;;;;;;;;;14.30;52.10;;;;;;5031327;28;20559;-95
2021/04/01 05:06:07;;;;;;;26.00;14.35;;;14.30;52.30;;;;;;4972484;28;20125;-95
2021/04/01 05:08:33;;;;;;;26.20;14.07;;;14.20;52.60;;;;;;4965483;28;20063;-95
2021/04/01 05:10:59;;;;;;;24.42;13.15;;;14.20;52.60;;;;;;4990287;28;20044;-94
2021/04/01 05:13:24;;;;;;;24.08;12.57;;;14.20;52.70;;;;;;5018615;28;20052;-95
2021/04/01 05:15:50;;;;;;;22.95;12.85;;;14.20;52.70;;;;;;5030457;28;20473;-96
2021/04/01 05:18:24;;;;;;;25.65;13.23;;;14.20;52.70;;;;;;5034614;28;20021;-95
2021/04/01 05:20:51;;;;;;;25.30;13.57;;;14.20;52.90;;;;;;5032820;28;20029;-95
2021/04/01 05:23:35;;;;;;;23.33;12.27;;;14.20;53.00;;;;;;5022449;28;20052;-90
2021/04/01 05:28:42;;;;;;;22.23;12.60;;;14.30;53.00;;;;;;5028476;28;20331;-92
2021/04/01 05:31:10;;;;;;;22.80;12.55;;;14.20;53.00;;;;;;5032407;28;20057;-92
2021/04/01 05:33:37;;;;;;;21.95;11.40;;;14.20;53.10;;;;;;5034194;28;20044;-93
2021/04/01 05:36:09;;;;;;;23.67;12.95;;;14.30;53.20;;;;;;5030285;28;20037;-93
2021/04/01 05:38:36;;;;;;;22.25;12.45;;;14.30;53.30;;;;;;5022295;28;20030;-94
2021/04/01 06:34:04;;;;;;;31.38;16.92;;;17.70;48.20;;;;;;5109325;22;20049;-95
2021/04/01 06:41:40;;;;;;;29.73;17.23;;;18.50;46.90;;;;;;5649177;22;20341;-96
2021/04/01 06:44:30;;;;;;;31.35;17.60;;;18.60;46.40;;;;;;5034162;28;20089;-96
2021/04/01 06:47:12;;;;;;;29.80;17.67;;;18.80;46.20;;;;;;5008432;28;20041;-96
2021/04/01 06:49:58;;;;;;;30.98;17.73;;;18.90;45.80;;;;;;5012573;28;20083;-94
2021/04/01 06:52:39;;;;;;;28.58;16.17;;;18.90;45.70;;;;;;5000677;28;20060;-94
2021/04/01 07:03:21;;;;;;;33.97;18.50;;;19.60;44.40;;;;;;5025871;28;20034;-96
2021/04/01 07:05:56;;;;;;;33.65;19.48;;;19.90;44.20;;;;;;5020596;28;20037;-96
2021/04/01 07:08:58;;;;;;;34.55;18.73;;;19.70;43.90;;;;;;5025105;28;20022;-95
2021/04/01 07:14:19;;;;;;;33.95;18.95;;;18.60;45.80;;;;;;5163424;22;20049;-96
2021/04/01 07:17:07;;;;;;;38.15;20.58;;;18.40;46.60;;;;;;5036689;28;20017;-96
2021/04/01 07:22:31;;;;;;;28.27;15.40;;;18.00;47.30;;;;;;5006605;28;20200;-96
2021/04/01 07:47:54;;;;;;;36.80;21.02;;;16.90;50.30;;;;;;5039260;28;20067;-93
2021/04/01 07:50:22;;;;;;;38.30;20.40;;;16.90;50.50;;;;;;5037762;28;20025;-91
2021/04/01 07:52:59;;;;;;;45.45;24.08;;;16.90;50.50;;;;;;5060645;28;20021;-96
2021/04/01 07:55:39;;;;;;;41.70;23.08;;;16.90;50.70;;;;;;5011315;28;20022;-96
2021/04/01 08:16:18;;;;;;;54.67;31.90;;;16.90;50.10;;;;;;5040659;28;20103;-94
2021/04/01 08:18:51;;;;;;;56.70;32.10;;;16.80;50.00;;;;;;5034226;28;20047;-94
2021/04/01 08:21:21;;;;;;;50.60;28.38;;;16.80;49.90;;;;;;5037605;28;20061;-96
2021/04/01 08:24:00;;;;;;;52.25;29.48;;;16.70;49.80;;;;;;5038198;28;20057;-95
2021/04/01 08:32:58;;;;;;;43.53;24.17;;;16.60;49.60;;;;;;5016892;28;20030;-96
2021/04/01 08:34:41;;;;;;;44.00;25.17;;;16.70;49.60;;;;;;5011375;28;20065;-95
2021/04/01 08:37:13;;;;;;;55.97;31.90;;;16.80;49.50;;;;;;5016589;28;20022;-95
2021/04/01 08:40:10;;;;;;;51.53;28.73;;;16.80;49.40;;;;;;5028154;28;20042;-96
2021/04/01 08:54:23;;;;;;;56.20;30.95;;;16.90;48.90;;;;;;5745561;22;20054;-96
2021/04/01 09:01:59;;;;;;;44.85;26.30;;;16.90;49.00;;;;;;5137783;22;20061;-96
2021/04/01 09:04:29;;;;;;;47.95;27.30;;;17.00;49.00;;;;;;5023221;28;20018;-96
2021/04/01 09:07:01;;;;;;;45.90;26.98;;;17.00;48.80;;;;;;5023603;28;20022;-96
2021/04/01 09:09:29;;;;;;;;;;;17.10;48.80;;;;;;5029226;28;20074;-96
2021/04/01 09:12:11;;;;;;;44.85;25.70;;;17.10;48.70;;;;;;5017838;28;20182;-96
2021/04/01 09:15:03;;;;;;;49.67;28.80;;;17.10;48.70;;;;;;5093931;22;20046;-94
2021/04/01 09:20:21;;;;;;;49.95;29.38;;;17.00;48.30;;;;;;5078820;22;20049;-96
2021/04/01 09:22:51;;;;;;;51.97;31.20;;;16.90;47.90;;;;;;5047923;28;20392;-95
2021/04/01 10:17:26;;;;;;;20.73;12.13;;;16.70;51.00;;;;;;5032675;28;20050;-96
2021/04/01 10:20:22;;;;;;;24.15;14.27;;;16.80;50.70;;;;;;5009351;28;20052;-96
2021/04/01 10:22:50;;;;;;;21.30;11.60;;;16.80;50.30;;;;;;5041954;28;20112;-96
2021/04/01 10:25:26;;;;;;;15.65;8.27;;;16.80;50.00;;;;;;5014104;28;20033;-96
2021/04/01 10:30:34;;;;;;;12.88;7.07;;;16.80;49.70;;;;;;5044455;22;20053;-96
2021/04/01 10:33:13;;;;;;;14.38;7.22;;;16.80;49.50;;;;;;5034693;28;20037;-96
2021/04/01 10:36:02;;;;;;;11.73;7.10;;;16.90;49.50;;;;;;5041689;28;20345;-96
2021/04/01 10:38:33;;;;;;;9.77;5.88;;;16.90;49.30;;;;;;5026634;28;20037;-96
2021/04/01 10:41:11;;;;;;;13.05;7.90;;;16.90;49.30;;;;;;5030188;28;20033;-96
2021/04/01 10:43:54;;;;;;;12.80;7.75;;;17.00;49.20;;;;;;5196561;22;20024;-96
2021/04/01 10:46:30;;;;;;;10.65;5.85;;;17.00;49.00;;;;;;5051857;28;20017;-96
2021/04/01 10:56:59;;;;;;;5.57;2.85;;;17.00;49.50;;;;;;5897327;22;20024;-95
2021/04/01 11:07:14;;;;;;;4.78;2.40;;;16.80;49.80;;;;;;6041350;22;20031;-96
2021/04/01 11:10:03;;;;;;;5.45;2.60;;;16.80;49.80;;;;;;5013124;22;20042;-96
2021/04/01 11:12:39;;;;;;;4.00;2.35;;;16.80;49.70;;;;;;5220169;23;20053;-95
2021/04/01 11:15:14;;;;;;;5.65;2.67;;;16.90;49.70;;;;;;5027766;28;20033;-95
2021/04/01 11:17:43;;;;;;;4.95;2.45;;;17.10;49.50;;;;;;5023571;28;20021;-94
2021/04/01 11:20:12;;;;;;;7.50;3.65;;;17.20;49.20;;;;;;5035283;28;20041;-95
2021/04/01 11:22:38;;;;;;;6.18;2.70;;;17.20;48.80;;;;;;5048051;22;20593;-96
2021/04/01 11:25:12;;;;;;;4.10;2.00;;;17.30;48.80;;;;;;5033199;28;20026;-96
2021/04/01 11:27:54;;;;;;;6.20;2.15;;;17.40;48.70;;;;;;5034614;28;20026;-96
2021/04/01 11:30:22;;;;;;;3.67;1.90;;;17.40;48.70;;;;;;5037572;28;20650;-95
2021/04/01 11:32:53;;;;;;;5.20;2.15;;;17.30;49.00;;;;;;5034817;28;20040;-95
2021/04/01 11:35:22;;;;;;;5.93;2.53;;;17.20;49.10;;;;;;5028509;28;20600;-96
2021/04/01 11:37:50;;;;;;;5.10;1.70;;;17.20;49.10;;;;;;5018788;28;20113;-95
2021/04/01 11:40:16;;;;;;;5.45;1.95;;;17.40;49.00;;;;;;5018139;28;20041;-93
2021/04/01 11:42:54;;;;;;;6.88;2.20;;;17.50;48.70;;;;;;5011026;28;20080;-91
2021/04/01 11:45:40;;;;;;;5.72;1.88;;;17.60;48.40;;;;;;5021846;28;20140;-96
2021/04/01 11:48:08;;;;;;;5.95;1.95;;;17.60;48.30;;;;;;5012073;28;20026;-94
2021/04/01 11:50:34;;;;;;;5.72;2.10;;;17.50;48.40;;;;;;5019718;28;20025;-93
2021/04/01 11:53:01;;;;;;;4.15;1.77;;;17.50;48.40;;;;;;5018268;28;20496;-95
2021/04/01 11:55:28;;;;;;;6.18;1.80;;;17.50;48.40;;;;;;5014314;28;20037;-93
2021/04/01 11:57:55;;;;;;;4.65;1.80;;;17.50;48.30;;;;;;5013109;28;20022;-94
2021/04/01 12:00:30;;;;;;;4.97;1.67;;;17.60;48.90;;;;;;5043195;23;20065;-95
2021/04/01 12:03:09;;;;;;;4.30;1.75;;;17.70;48.10;;;;;;5028915;28;20594;-93
2021/04/01 12:05:41;;;;;;;5.22;1.60;;;17.80;48.10;;;;;;5021950;28;20094;-95
2021/04/01 12:10:56;;;;;;;7.55;1.70;;;17.80;48.00;;;;;;5218070;22;20519;-96
2021/04/01 12:13:36;;;;;;;6.07;1.83;;;17.80;48.10;;;;;;5034543;28;20112;-93
2021/04/01 12:16:15;;;;;;;5.03;1.45;;;17.80;48.10;;;;;;5029710;28;20026;-95
2021/04/01 12:18:46;;;;;;;6.63;1.80;;;17.80;48.30;;;;;;5045879;28;20026;-96
2021/04/01 12:21:13;;;;;;;5.68;1.80;;;17.80;48.30;;;;;;5037702;28;20553;-91
2021/04/01 12:23:58;;;;;;;6.22;2.10;;;17.80;48.30;;;;;;5039297;28;20055;-96
2021/04/01 12:26:29;;;;;;;6.53;2.10;;;17.90;48.20;;;;;;5032465;28;20388;-96
2021/04/01 12:29:03;;;;;;;5.18;1.95;;;18.00;48.80;;;;;;5034554;28;20026;-96
2021/04/01 12:31:38;;;;;;;3.05;1.17;;;17.90;48.20;;;;;;5038424;28;20051;-96
2021/04/01 12:34:05;;;;;;;4.28;1.48;;;17.90;48.30;;;;;;5038273;28;20026;-94
2021/04/01 12:36:36;;;;;;;4.03;1.42;;;18.00;48.40;;;;;;5055323;28;20117;-96
2021/04/01 12:39:30;;;;;;;4.55;1.60;;;18.20;48.10;;;;;;5055467;28;20037;-96
2021/04/01 12:47:28;;;;;;;3.85;1.45;;;17.90;47.90;;;;;;5031048;28;20038;-96
2021/04/01 12:50:00;;;;;;;6.53;1.90;;;17.80;48.00;;;;;;5053403;28;20040;-96
2021/04/01 12:52:27;;;;;;;5.72;1.70;;;17.80;48.40;;;;;;5124430;23;20049;-96
2021/04/01 12:54:53;;;;;;;5.32;1.70;;;17.90;48.40;;;;;;5281489;22;20061;-96
2021/04/01 14:10:27;;;;;;;4.70;1.10;;;18.00;41.70;;;;;;5769895;22;20049;-96
2021/04/01 14:12:54;;;;;;;2.88;1.05;;;18.00;41.00;;;;;;5040336;28;20105;-95
2021/04/01 14:15:19;;;;;;;4.38;0.98;;;18.10;40.60;;;;;;5047206;28;20037;-96
2021/04/01 14:17:45;;;;;;;3.80;1.25;;;18.20;40.20;;;;;;5054828;28;20029;-96
2021/04/01 14:22:49;;;;;;;2.92;1.10;;;18.20;39.70;;;;;;5127671;22;20088;-96
2021/04/01 14:28:01;;;;;;;4.40;1.40;;;18.10;38.90;;;;;;5452968;22;20053;-96
2021/04/01 14:30:29;;;;;;;5.43;1.40;;;17.90;38.60;;;;;;5039813;28;20030;-96
2021/04/01 14:32:55;;;;;;;4.47;1.27;;;17.70;38.90;;;;;;5035130;28;20025;-96
2021/04/01 14:35:31;;;;;;;4.72;1.45;;;17.70;39.10;;;;;;5044363;28;20049;-96
2021/04/01 14:45:42;;;;;;;6.43;1.40;;;17.60;39.80;;;;;;5415039;22;20101;-96
2021/04/01 14:48:11;;;;;;;4.20;1.30;;;17.50;39.70;;;;;;5031642;28;20242;-95
2021/04/01 14:55:49;;;;;;;5.63;1.45;;;17.70;39.40;;;;;;5127495;22;20060;-96
2021/04/01 15:16:19;;;;;;;3.42;1.20;;;16.80;39.90;;;;;;5137815;22;20025;-96
2021/04/01 15:21:21;;;;;;;5.13;1.50;;;16.90;39.20;;;;;;5117850;22;20068;-96
2021/04/01 15:31:35;;;;;;;2.50;1.00;;;16.50;36.20;;;;;;5233558;22;20136;-96
2021/04/01 15:34:01;;;;;;;3.05;1.30;;;16.30;35.60;;;;;;5040181;28;20054;-96
2021/04/01 15:36:36;;;;;;;5.43;1.40;;;16.10;36.50;;;;;;5053004;28;20085;-95
2021/04/01 15:39:06;;;;;;;5.05;1.65;;;16.00;37.50;;;;;;5401670;22;20040;-96
2021/04/01 15:41:38;;;;;;;4.05;1.20;;;15.80;36.50;;;;;;5545524;22;20141;-96
2021/04/01 15:44:05;;;;;;;4.43;1.30;;;15.80;37.10;;;;;;5076638;23;20064;-96
2021/04/01 15:46:33;;;;;;;4.25;1.20;;;15.80;37.00;;;;;;5054208;28;20017;-95
2021/04/01 15:48:59;;;;;;;5.78;1.48;;;15.70;37.40;;;;;;5414356;22;20034;-96
2021/04/01 16:12:30;;;;;;;3.60;1.42;;;15.20;38.90;;;;;;5219107;22;20041;-96
2021/04/01 16:15:06;;;;;;;4.78;1.40;;;15.10;39.00;;;;;;5066615;28;20034;-96
2021/04/01 16:17:31;;;;;;;5.20;1.50;;;15.10;39.30;;;;;;5159623;23;20072;-96
2021/04/01 16:20:00;;;;;;;4.95;1.40;;;15.00;39.30;;;;;;5047317;28;20065;-95
2021/04/01 16:25:01;;;;;;;4.97;1.52;;;14.80;39.40;;;;;;5430013;22;20105;-96
2021/04/01 16:35:15;;;;;;;5.88;1.55;;;14.60;40.70;;;;;;5946988;22;20151;-94
2021/04/01 16:37:51;;;;;;;3.28;1.30;;;14.60;40.80;;;;;;5041168;28;20021;-95
2021/04/01 16:40:31;;;;;;;5.45;1.70;;;14.60;40.80;;;;;;5032849;28;20037;-96
2021/04/01 16:42:57;;;;;;;5.63;1.50;;;14.50;41.10;;;;;;5049162;28;20021;-95
2021/04/01 16:45:24;;;;;;;5.00;1.52;;;14.50;41.20;;;;;;5033416;28;20107;-96
2021/04/01 16:47:50;;;;;;;3.15;1.20;;;14.60;41.10;;;;;;5105392;23;20474;-96
2021/04/01 16:53:03;;;;;;;7.18;1.95;;;14.40;40.30;;;;;;5026259;28;20057;-95
2021/04/01 16:55:33;;;;;;;5.15;1.50;;;14.40;40.10;;;;;;5896704;22;20047;-96
2021/04/01 16:58:06;;;;;;;4.90;1.50;;;14.30;40.20;;;;;;5009886;28;20045;-96
2021/04/01 17:00:38;;;;;;;3.55;1.50;;;14.20;40.40;;;;;;5000302;28;20074;-96
2021/04/01 18:02:47;;;;;;;4.18;1.67;;;12.50;47.40;;;;;;5923985;22;20108;-96
2021/04/01 19:24:58;;;;;;;3.47;1.65;;;10.10;60.60;;;;;;5562067;23;20054;-96
2021/04/01 19:27:43;;;;;;;4.03;1.80;;;10.00;60.80;;;;;;4989817;28;20030;-96
2021/04/01 19:30:12;;;;;;;4.85;1.90;;;9.90;61.20;;;;;;4973809;28;20107;-96
2021/04/01 19:33:00;;;;;;;3.40;1.60;;;9.80;61.60;;;;;;4994040;28;20030;-96
2021/04/01 19:35:26;;;;;;;4.40;1.77;;;9.70;62.20;;;;;;4991864;28;20518;-96
2021/04/01 19:38:15;;;;;;;2.90;1.88;;;9.70;61.60;;;;;;5435619;23;21110;-92
2021/04/01 19:59:07;;;;;;;2.47;1.65;;;9.50;61.00;;;;;;4931485;29;20044;-88
2021/04/01 20:01:34;;;;;;;3.97;1.73;;;9.50;61.30;;;;;;4925070;29;20040;-89
2021/04/01 20:04:01;;;;;;;4.45;1.75;;;9.40;61.40;;;;;;4931348;29;20032;-89
2021/04/01 20:06:28;;;;;;;4.53;2.00;;;9.30;61.90;;;;;;4923121;29;20036;-89
2021/04/01 20:08:54;;;;;;;3.33;1.60;;;9.30;61.80;;;;;;4917859;29;20609;-89
2021/04/01 20:11:22;;;;;;;4.35;1.70;;;9.30;61.80;;;;;;4918930;29;20037;-90
2021/04/01 20:13:50;;;;;;;4.45;1.77;;;9.30;61.90;;;;;;4913592;29;20652;-88
2021/04/01 20:16:16;;;;;;;3.35;1.80;;;9.30;61.80;;;;;;4934234;29;20034;-88
2021/04/01 20:18:43;;;;;;;3.83;1.50;;;9.30;61.70;;;;;;4917380;29;20115;-89
2021/04/01 20:21:09;;;;;;;3.80;1.80;;;9.20;61.70;;;;;;4908406;29;20040;-89
2021/04/01 20:23:34;;;;;;;5.30;1.90;;;9.20;61.80;;;;;;4929322;29;20078;-88
2021/04/01 20:26:00;;;;;;;5.35;1.90;;;9.10;62.10;;;;;;4919911;29;20035;-88
2021/04/01 20:28:26;;;;;;;3.45;1.67;;;9.10;62.20;;;;;;4915573;29;20036;-88
2021/04/01 20:30:52;;;;;;;4.15;1.95;;;9.00;62.10;;;;;;4917444;29;20029;-88
2021/04/01 20:33:21;;;;;;;5.03;1.80;;;9.00;62.40;;;;;;4917428;29;20032;-89
2021/04/01 20:35:47;;;;;;;3.13;2.22;;;9.00;62.30;;;;;;4917571;29;20032;-89
2021/04/01 20:38:13;;;;;;;6.18;2.58;;;8.90;63.20;;;;;;4919917;29;20487;-90
2021/04/01 20:40:40;;;;;;;2.83;1.77;;;8.80;63.00;;;;;;4918920;29;20043;-88
2021/04/01 20:43:07;;;;;;;7.22;2.20;;;8.80;63.40;;;;;;4915341;29;20107;-89
2021/04/01 20:45:33;;;;;;;4.15;1.80;;;8.70;63.80;;;;;;4930283;29;20047;-88
2021/04/01 20:47:58;;;;;;;4.32;1.98;;;8.60;63.80;;;;;;4920435;29;20403;-89
2021/04/01 20:50:28;;;;;;;5.25;2.15;;;8.60;63.70;;;;;;4916104;29;20028;-90
2021/04/01 20:52:54;;;;;;;5.13;1.90;;;8.50;64.10;;;;;;4915828;29;20039;-88
2021/04/01 20:55:22;;;;;;;3.70;1.83;;;8.50;63.90;;;;;;4916537;29;20032;-89
2021/04/01 20:57:49;;;;;;;5.53;1.80;;;8.40;64.30;;;;;;4915551;29;20520;-88
2021/04/01 21:00:22;;;;;;;4.88;1.70;;;8.40;64.20;;;;;;4923358;29;20043;-90
2021/04/01 21:02:48;;;;;;;6.50;1.67;;;8.40;64.50;;;;;;4922873;29;20032;-88
2021/04/01 21:05:19;;;;;;;4.00;1.80;;;8.30;64.60;;;;;;4917821;29;20452;-87
2021/04/01 21:07:45;;;;;;;3.75;1.77;;;8.20;64.60;;;;;;4923677;29;20032;-88
2021/04/01 21:10:20;;;;;;;3.83;1.38;;;8.20;64.50;;;;;;4926682;29;20036;-86
2021/04/01 21:12:47;;;;;;;6.97;2.00;;;8.20;64.70;;;;;;4916395;29;20503;-88
2021/04/01 21:15:23;;;;;;;3.60;1.80;;;8.20;64.90;;;;;;4916019;29;20111;-88
2021/04/01 21:17:49;;;;;;;6.25;1.88;;;8.10;65.70;;;;;;4916936;29;20111;-87
2021/04/01 21:20:17;;;;;;;5.00;2.17;;;8.10;65.60;;;;;;4916871;29;20763;-86
2021/04/01 21:22:43;;;;;;;3.65;1.70;;;8.00;66.60;;;;;;4918391;29;20024;-87
2021/04/01 21:25:27;;;;;;;4.50;1.52;;;7.90;66.30;;;;;;4925746;29;20087;-86
2021/04/01 21:27:55;;;;;;;4.93;1.60;;;7.90;66.40;;;;;;4914842;29;20028;-86
2021/04/01 21:30:28;;;;;;;4.32;1.90;;;7.90;66.40;;;;;;4920201;29;20079;-86
2021/04/01 21:32:54;;;;;;;4.90;1.42;;;7.80;66.20;;;;;;4910890;29;20111;-87
2021/04/01 21:35:22;;;;;;;4.18;1.58;;;7.80;66.20;;;;;;4919217;29;20386;-87
2021/04/01 21:37:49;;;;;;;3.78;1.50;;;7.80;66.30;;;;;;4914163;29;20032;-87
2021/04/01 21:40:28;;;;;;;4.35;1.30;;;7.80;66.50;;;;;;4924679;29;20050;-85
2021/04/01 21:42:54;;;;;;;4.47;1.60;;;7.80;67.10;;;;;;4945792;29;20035;-89
2021/04/01 21:45:24;;;;;;;5.97;1.88;;;7.70;66.40;;;;;;4916224;29;20749;-86
2021/04/01 21:47:51;;;;;;;3.90;1.52;;;7.70;66.80;;;;;;4926514;29;20055;-87
2021/04/01 21:50:25;;;;;;;2.90;1.27;;;7.70;66.80;;;;;;4915581;29;20036;-88
2021/04/01 21:52:51;;;;;;;3.00;1.60;;;7.70;66.60;;;;;;4909927;29;20533;-86
2021/04/01 21:55:17;;;;;;;4.10;1.55;;;7.70;66.80;;;;;;4921812;29;20550;-86
2021/04/01 21:57:44;;;;;;;4.75;2.00;;;7.70;67.00;;;;;;4916759;29;20024;-85
2021/04/01 22:00:32;;;;;;;3.88;1.60;;;7.60;68.20;;;;;;4926561;29;20040;-88
2021/04/01 22:03:07;;;;;;;3.70;1.40;;;7.50;68.20;;;;;;4898136;29;20077;-90
2021/04/01 22:05:33;;;;;;;6.32;1.70;;;7.60;67.90;;;;;;4902787;29;20032;-89